sensor_id;sensor_type;location;lat;lon;timestamp;temperature;humidity
75489;HTU21D;64069;46.396;48.102;2022-10-23T00:00:10;0.96;85.25
75489;HTU21D;64069;46.396;48.102;2022-10-23T00:02:36;0.97;85.29
75489;HTU21D;64069;46.396;48.102;2022-10-23T00:05:02;0.96;85.31
75489;HTU21D;64069;46.396;48.102;2022-10-23T00:07:28;0.97;85.34
75489;HTU21D;64069;46.396;48.102;2022-10-23T00:09:54;0.99;85.31
75489;HTU21D;64069;46.396;48.102;2022-10-23T00:12:20;1.01;85.29
75489;HTU21D;64069;46.396;48.102;2022-10-23T00:14:46;1.04;85.29
75489;HTU21D;64069;46.396;48.102;2022-10-23T00:17:12;1.10;85.28
75489;HTU21D;64069;46.396;48.102;2022-10-23T00:19:38;1.14;85.20
75489;HTU21D;64069;46.396;48.102;2022-10-23T00:22:04;1.18;85.17
75489;HTU21D;64069;46.396;48.102;2022-10-23T00:24:30;1.19;85.16
75489;HTU21D;64069;46.396;48.102;2022-10-23T00:26:56;1.23;85.18
75489;HTU21D;64069;46.396;48.102;2022-10-23T00:29:22;1.27;85.18
75489;HTU21D;64069;46.396;48.102;2022-10-23T00:31:48;1.35;85.11
75489;HTU21D;64069;46.396;48.102;2022-10-23T00:34:16;1.39;85.09
75489;HTU21D;64069;46.396;48.102;2022-10-23T00:36:43;1.42;85.10
75489;HTU21D;64069;46.396;48.102;2022-10-23T00:39:09;1.42;85.13
75489;HTU21D;64069;46.396;48.102;2022-10-23T00:41:35;1.48;85.18
75489;HTU21D;64069;46.396;48.102;2022-10-23T00:44:10;1.50;85.22
75489;HTU21D;64069;46.396;48.102;2022-10-23T00:46:55;1.52;85.19
75489;HTU21D;64069;46.396;48.102;2022-10-23T00:49:22;1.56;85.25
75489;HTU21D;64069;46.396;48.102;2022-10-23T00:51:57;1.64;85.22
75489;HTU21D;64069;46.396;48.102;2022-10-23T00:54:25;1.65;85.23
75489;HTU21D;64069;46.396;48.102;2022-10-23T00:56:58;1.67;85.35
75489;HTU21D;64069;46.396;48.102;2022-10-23T00:59:25;1.67;85.38
75489;HTU21D;64069;46.396;48.102;2022-10-23T01:01:52;1.64;85.49
75489;HTU21D;64069;46.396;48.102;2022-10-23T01:04:18;1.63;85.60
75489;HTU21D;64069;46.396;48.102;2022-10-23T01:09:52;1.55;85.80
75489;HTU21D;64069;46.396;48.102;2022-10-23T01:12:32;1.51;85.86
75489;HTU21D;64069;46.396;48.102;2022-10-23T01:17:55;1.45;86.13
75489;HTU21D;64069;46.396;48.102;2022-10-23T01:20:31;1.40;86.09
75489;HTU21D;64069;46.396;48.102;2022-10-23T01:28:56;1.32;86.19
75489;HTU21D;64069;46.396;48.102;2022-10-23T01:31:32;1.28;86.22
75489;HTU21D;64069;46.396;48.102;2022-10-23T01:34:06;1.26;86.29
75489;HTU21D;64069;46.396;48.102;2022-10-23T01:36:37;1.23;86.32
75489;HTU21D;64069;46.396;48.102;2022-10-23T01:39:13;1.24;86.34
75489;HTU21D;64069;46.396;48.102;2022-10-23T01:42:05;1.26;86.40
75489;HTU21D;64069;46.396;48.102;2022-10-23T01:44:40;1.29;86.29
75489;HTU21D;64069;46.396;48.102;2022-10-23T01:47:09;1.28;86.25
75489;HTU21D;64069;46.396;48.102;2022-10-23T01:49:50;1.27;86.32
75489;HTU21D;64069;46.396;48.102;2022-10-23T01:52:18;1.28;86.36
75489;HTU21D;64069;46.396;48.102;2022-10-23T01:54:48;1.33;86.39
75489;HTU21D;64069;46.396;48.102;2022-10-23T01:57:17;1.35;86.40
75489;HTU21D;64069;46.396;48.102;2022-10-23T01:59:49;1.34;86.41
75489;HTU21D;64069;46.396;48.102;2022-10-23T02:02:15;1.37;86.51
75489;HTU21D;64069;46.396;48.102;2022-10-23T02:05:11;1.41;86.30
75489;HTU21D;64069;46.396;48.102;2022-10-23T02:07:39;1.46;86.18
75489;HTU21D;64069;46.396;48.102;2022-10-23T02:10:07;1.50;86.21
75489;HTU21D;64069;46.396;48.102;2022-10-23T02:12:45;1.57;86.27
75489;HTU21D;64069;46.396;48.102;2022-10-23T02:20:39;1.68;86.41
75489;HTU21D;64069;46.396;48.102;2022-10-23T02:25:54;1.58;86.67
75489;HTU21D;64069;46.396;48.102;2022-10-23T02:28:33;1.60;86.76
75489;HTU21D;64069;46.396;48.102;2022-10-23T02:31:03;1.61;86.80
75489;HTU21D;64069;46.396;48.102;2022-10-23T02:33:32;1.58;86.55
75489;HTU21D;64069;46.396;48.102;2022-10-23T02:35:59;1.57;86.58
75489;HTU21D;64069;46.396;48.102;2022-10-23T02:38:37;1.55;86.75
75489;HTU21D;64069;46.396;48.102;2022-10-23T02:41:38;1.57;86.80
75489;HTU21D;64069;46.396;48.102;2022-10-23T02:44:49;1.56;86.79
75489;HTU21D;64069;46.396;48.102;2022-10-23T02:47:43;1.53;86.81
75489;HTU21D;64069;46.396;48.102;2022-10-23T02:50:29;1.56;86.79
75489;HTU21D;64069;46.396;48.102;2022-10-23T02:53:13;1.56;86.81
75489;HTU21D;64069;46.396;48.102;2022-10-23T02:56:25;1.56;86.90
75489;HTU21D;64069;46.396;48.102;2022-10-23T02:59:06;1.50;86.83
75489;HTU21D;64069;46.396;48.102;2022-10-23T03:04:38;1.39;86.98
75489;HTU21D;64069;46.396;48.102;2022-10-23T03:07:08;1.36;87.09
75489;HTU21D;64069;46.396;48.102;2022-10-23T03:09:35;1.35;87.13
75489;HTU21D;64069;46.396;48.102;2022-10-23T03:12:02;1.38;87.12
75489;HTU21D;64069;46.396;48.102;2022-10-23T03:14:31;1.41;87.10
75489;HTU21D;64069;46.396;48.102;2022-10-23T03:16:57;1.40;87.05
75489;HTU21D;64069;46.396;48.102;2022-10-23T03:19:24;1.41;87.05
75489;HTU21D;64069;46.396;48.102;2022-10-23T03:21:50;1.50;87.03
75489;HTU21D;64069;46.396;48.102;2022-10-23T03:24:19;1.62;86.94
75489;HTU21D;64069;46.396;48.102;2022-10-23T03:26:45;1.72;86.84
75489;HTU21D;64069;46.396;48.102;2022-10-23T03:29:11;1.80;86.74
75489;HTU21D;64069;46.396;48.102;2022-10-23T03:31:43;1.86;86.73
75489;HTU21D;64069;46.396;48.102;2022-10-23T03:34:12;1.95;86.72
75489;HTU21D;64069;46.396;48.102;2022-10-23T03:36:40;2.02;86.66
75489;HTU21D;64069;46.396;48.102;2022-10-23T03:39:07;2.11;86.64
75489;HTU21D;64069;46.396;48.102;2022-10-23T03:41:33;2.23;86.65
75489;HTU21D;64069;46.396;48.102;2022-10-23T03:43:59;2.41;86.59
75489;HTU21D;64069;46.396;48.102;2022-10-23T03:46:25;2.62;86.38
75489;HTU21D;64069;46.396;48.102;2022-10-23T03:48:53;2.83;86.19
75489;HTU21D;64069;46.396;48.102;2022-10-23T03:51:21;3.02;85.98
75489;HTU21D;64069;46.396;48.102;2022-10-23T03:53:47;3.23;85.78
75489;HTU21D;64069;46.396;48.102;2022-10-23T03:56:14;3.41;85.61
75489;HTU21D;64069;46.396;48.102;2022-10-23T03:58:40;3.62;85.51
75489;HTU21D;64069;46.396;48.102;2022-10-23T04:01:07;3.77;85.35
75489;HTU21D;64069;46.396;48.102;2022-10-23T04:03:34;3.87;85.27
75489;HTU21D;64069;46.396;48.102;2022-10-23T04:06:00;3.90;85.29
75489;HTU21D;64069;46.396;48.102;2022-10-23T04:08:26;3.91;85.47
75489;HTU21D;64069;46.396;48.102;2022-10-23T04:10:54;4.01;85.58
75489;HTU21D;64069;46.396;48.102;2022-10-23T04:13:27;4.15;85.52
75489;HTU21D;64069;46.396;48.102;2022-10-23T04:15:53;4.36;85.37
75489;HTU21D;64069;46.396;48.102;2022-10-23T04:18:19;4.52;85.09
75489;HTU21D;64069;46.396;48.102;2022-10-23T04:20:49;4.56;85.00
75489;HTU21D;64069;46.396;48.102;2022-10-23T04:23:16;4.59;85.07
75489;HTU21D;64069;46.396;48.102;2022-10-23T04:25:44;4.65;85.11
75489;HTU21D;64069;46.396;48.102;2022-10-23T04:28:11;4.72;85.09
75489;HTU21D;64069;46.396;48.102;2022-10-23T04:30:39;4.80;85.09
75489;HTU21D;64069;46.396;48.102;2022-10-23T04:33:08;4.89;85.03
75489;HTU21D;64069;46.396;48.102;2022-10-23T04:35:34;4.96;84.97
75489;HTU21D;64069;46.396;48.102;2022-10-23T04:38:00;5.03;84.92
75489;HTU21D;64069;46.396;48.102;2022-10-23T04:40:26;5.08;84.88
75489;HTU21D;64069;46.396;48.102;2022-10-23T04:42:53;5.08;84.86
75489;HTU21D;64069;46.396;48.102;2022-10-23T04:45:20;5.08;84.93
75489;HTU21D;64069;46.396;48.102;2022-10-23T04:47:46;5.20;84.97
75489;HTU21D;64069;46.396;48.102;2022-10-23T04:50:12;5.28;84.86
75489;HTU21D;64069;46.396;48.102;2022-10-23T04:52:57;5.40;84.71
75489;HTU21D;64069;46.396;48.102;2022-10-23T04:55:54;5.51;84.57
75489;HTU21D;64069;46.396;48.102;2022-10-23T04:58:33;5.63;84.42
75489;HTU21D;64069;46.396;48.102;2022-10-23T05:01:00;5.75;84.35
75489;HTU21D;64069;46.396;48.102;2022-10-23T05:03:27;5.85;84.25
75489;HTU21D;64069;46.396;48.102;2022-10-23T05:05:54;5.95;84.19
75489;HTU21D;64069;46.396;48.102;2022-10-23T05:08:49;6.05;84.01
75489;HTU21D;64069;46.396;48.102;2022-10-23T05:11:15;6.13;84.00
75489;HTU21D;64069;46.396;48.102;2022-10-23T05:13:45;6.28;83.94
75489;HTU21D;64069;46.396;48.102;2022-10-23T05:18:55;6.66;83.49
75489;HTU21D;64069;46.396;48.102;2022-10-23T05:21:26;6.84;83.26
75489;HTU21D;64069;46.396;48.102;2022-10-23T05:23:53;6.93;83.15
75489;HTU21D;64069;46.396;48.102;2022-10-23T05:26:19;7.07;82.98
75489;HTU21D;64069;46.396;48.102;2022-10-23T05:28:48;7.23;82.82
75489;HTU21D;64069;46.396;48.102;2022-10-23T05:31:17;7.34;82.62
75489;HTU21D;64069;46.396;48.102;2022-10-23T05:33:48;7.52;82.55
75489;HTU21D;64069;46.396;48.102;2022-10-23T05:36:15;7.74;82.28
75489;HTU21D;64069;46.396;48.102;2022-10-23T05:38:44;7.98;81.94
75489;HTU21D;64069;46.396;48.102;2022-10-23T05:41:16;8.22;81.55
75489;HTU21D;64069;46.396;48.102;2022-10-23T05:43:42;8.46;81.27
75489;HTU21D;64069;46.396;48.102;2022-10-23T05:46:28;8.66;80.90
75489;HTU21D;64069;46.396;48.102;2022-10-23T05:49:23;8.91;80.65
75489;HTU21D;64069;46.396;48.102;2022-10-23T05:52:12;9.16;80.23
75489;HTU21D;64069;46.396;48.102;2022-10-23T05:54:56;9.39;79.91
75489;HTU21D;64069;46.396;48.102;2022-10-23T05:57:41;9.74;79.54
75489;HTU21D;64069;46.396;48.102;2022-10-23T06:00:10;9.99;78.98
75489;HTU21D;64069;46.396;48.102;2022-10-23T06:02:39;10.23;78.58
75489;HTU21D;64069;46.396;48.102;2022-10-23T06:05:13;10.45;77.93
75489;HTU21D;64069;46.396;48.102;2022-10-23T06:08:01;10.55;77.50
75489;HTU21D;64069;46.396;48.102;2022-10-23T06:10:26;10.71;77.20
75489;HTU21D;64069;46.396;48.102;2022-10-23T06:12:58;10.98;76.69
75489;HTU21D;64069;46.396;48.102;2022-10-23T06:15:25;11.19;76.05
75489;HTU21D;64069;46.396;48.102;2022-10-23T06:18:02;11.44;75.46
75489;HTU21D;64069;46.396;48.102;2022-10-23T06:20:36;11.60;74.92
75489;HTU21D;64069;46.396;48.102;2022-10-23T06:23:17;11.75;74.60
75489;HTU21D;64069;46.396;48.102;2022-10-23T06:26:14;11.94;74.13
75489;HTU21D;64069;46.396;48.102;2022-10-23T06:29:06;12.10;73.58
75489;HTU21D;64069;46.396;48.102;2022-10-23T06:31:32;12.14;73.19
75489;HTU21D;64069;46.396;48.102;2022-10-23T06:33:58;12.08;72.62
75489;HTU21D;64069;46.396;48.102;2022-10-23T06:36:26;12.08;72.35
75489;HTU21D;64069;46.396;48.102;2022-10-23T06:39:18;12.19;72.03
75489;HTU21D;64069;46.396;48.102;2022-10-23T06:42:00;12.19;71.72
75489;HTU21D;64069;46.396;48.102;2022-10-23T06:44:55;12.22;71.38
75489;HTU21D;64069;46.396;48.102;2022-10-23T06:47:44;12.26;70.76
75489;HTU21D;64069;46.396;48.102;2022-10-23T06:50:37;12.31;70.32
75489;HTU21D;64069;46.396;48.102;2022-10-23T06:53:09;12.35;69.56
75489;HTU21D;64069;46.396;48.102;2022-10-23T06:55:41;12.32;69.16
75489;HTU21D;64069;46.396;48.102;2022-10-23T06:58:10;12.28;68.26
75489;HTU21D;64069;46.396;48.102;2022-10-23T07:00:51;12.35;68.15
75489;HTU21D;64069;46.396;48.102;2022-10-23T07:03:17;12.49;67.67
75489;HTU21D;64069;46.396;48.102;2022-10-23T07:05:43;12.64;66.94
75489;HTU21D;64069;46.396;48.102;2022-10-23T07:08:13;12.73;66.08
75489;HTU21D;64069;46.396;48.102;2022-10-23T07:10:41;12.70;65.52
75489;HTU21D;64069;46.396;48.102;2022-10-23T07:13:09;12.69;65.17
75489;HTU21D;64069;46.396;48.102;2022-10-23T07:15:38;12.75;64.98
75489;HTU21D;64069;46.396;48.102;2022-10-23T07:18:07;12.91;64.55
75489;HTU21D;64069;46.396;48.102;2022-10-23T07:21:08;13.01;64.37
75489;HTU21D;64069;46.396;48.102;2022-10-23T07:23:37;13.05;63.73
75489;HTU21D;64069;46.396;48.102;2022-10-23T07:26:11;12.91;63.07
75489;HTU21D;64069;46.396;48.102;2022-10-23T07:28:44;12.96;63.15
75489;HTU21D;64069;46.396;48.102;2022-10-23T07:31:16;13.04;62.73
75489;HTU21D;64069;46.396;48.102;2022-10-23T07:34:01;13.02;62.36
75489;HTU21D;64069;46.396;48.102;2022-10-23T07:36:27;12.91;61.83
75489;HTU21D;64069;46.396;48.102;2022-10-23T07:38:56;12.82;61.76
75489;HTU21D;64069;46.396;48.102;2022-10-23T07:41:22;12.94;61.54
75489;HTU21D;64069;46.396;48.102;2022-10-23T07:43:48;12.90;60.75
75489;HTU21D;64069;46.396;48.102;2022-10-23T07:46:14;12.70;60.61
75489;HTU21D;64069;46.396;48.102;2022-10-23T07:48:44;12.57;60.12
75489;HTU21D;64069;46.396;48.102;2022-10-23T07:51:13;12.47;60.03
75489;HTU21D;64069;46.396;48.102;2022-10-23T07:53:45;12.45;60.19
75489;HTU21D;64069;46.396;48.102;2022-10-23T07:56:27;12.44;60.09
75489;HTU21D;64069;46.396;48.102;2022-10-23T07:59:22;12.52;60.08
75489;HTU21D;64069;46.396;48.102;2022-10-23T08:01:52;12.61;59.84
75489;HTU21D;64069;46.396;48.102;2022-10-23T08:04:22;12.62;59.69
75489;HTU21D;64069;46.396;48.102;2022-10-23T08:07:04;12.70;59.70
75489;HTU21D;64069;46.396;48.102;2022-10-23T08:09:36;12.79;59.64
75489;HTU21D;64069;46.396;48.102;2022-10-23T08:12:03;12.90;59.48
75489;HTU21D;64069;46.396;48.102;2022-10-23T08:14:30;12.99;59.02
75489;HTU21D;64069;46.396;48.102;2022-10-23T08:16:56;12.93;58.43
75489;HTU21D;64069;46.396;48.102;2022-10-23T08:19:40;13.00;58.58
75489;HTU21D;64069;46.396;48.102;2022-10-23T08:22:11;13.02;58.32
75489;HTU21D;64069;46.396;48.102;2022-10-23T08:24:37;13.08;58.23
75489;HTU21D;64069;46.396;48.102;2022-10-23T08:27:03;13.14;58.03
75489;HTU21D;64069;46.396;48.102;2022-10-23T08:29:30;13.20;57.87
75489;HTU21D;64069;46.396;48.102;2022-10-23T08:31:56;13.11;57.61
75489;HTU21D;64069;46.396;48.102;2022-10-23T08:34:31;13.05;57.64
75489;HTU21D;64069;46.396;48.102;2022-10-23T08:37:02;12.96;57.32
75489;HTU21D;64069;46.396;48.102;2022-10-23T08:39:31;13.02;57.10
75489;HTU21D;64069;46.396;48.102;2022-10-23T08:42:19;13.06;56.33
75489;HTU21D;64069;46.396;48.102;2022-10-23T08:45:15;13.18;56.00
75489;HTU21D;64069;46.396;48.102;2022-10-23T08:47:58;13.35;55.80
75489;HTU21D;64069;46.396;48.102;2022-10-23T08:50:50;13.52;55.33
75489;HTU21D;64069;46.396;48.102;2022-10-23T08:56:01;13.55;54.05
75489;HTU21D;64069;46.396;48.102;2022-10-23T08:58:45;13.34;54.27
75489;HTU21D;64069;46.396;48.102;2022-10-23T09:01:41;13.19;54.16
75489;HTU21D;64069;46.396;48.102;2022-10-23T09:04:14;13.05;54.08
75489;HTU21D;64069;46.396;48.102;2022-10-23T09:12:18;12.92;54.10
75489;HTU21D;64069;46.396;48.102;2022-10-23T09:17:29;12.92;54.18
75489;HTU21D;64069;46.396;48.102;2022-10-23T09:20:20;12.94;54.02
75489;HTU21D;64069;46.396;48.102;2022-10-23T09:23:03;12.77;53.72
75489;HTU21D;64069;46.396;48.102;2022-10-23T09:25:38;12.65;54.01
75489;HTU21D;64069;46.396;48.102;2022-10-23T09:28:05;12.65;54.18
75489;HTU21D;64069;46.396;48.102;2022-10-23T09:30:37;12.76;53.84
75489;HTU21D;64069;46.396;48.102;2022-10-23T09:33:15;12.78;53.52
75489;HTU21D;64069;46.396;48.102;2022-10-23T09:36:05;12.82;53.65
75489;HTU21D;64069;46.396;48.102;2022-10-23T09:38:47;12.94;53.50
75489;HTU21D;64069;46.396;48.102;2022-10-23T09:41:25;13.11;53.19
75489;HTU21D;64069;46.396;48.102;2022-10-23T09:46:39;13.64;52.24
75489;HTU21D;64069;46.396;48.102;2022-10-23T09:49:18;13.68;51.50
75489;HTU21D;64069;46.396;48.102;2022-10-23T09:52:04;13.58;51.44
75489;HTU21D;64069;46.396;48.102;2022-10-23T09:54:33;13.55;51.40
75489;HTU21D;64069;46.396;48.102;2022-10-23T10:00:21;13.60;51.49
75489;HTU21D;64069;46.396;48.102;2022-10-23T10:02:57;13.61;51.37
75489;HTU21D;64069;46.396;48.102;2022-10-23T10:05:59;13.64;51.30
75489;HTU21D;64069;46.396;48.102;2022-10-23T10:08:45;13.82;50.82
75489;HTU21D;64069;46.396;48.102;2022-10-23T10:19:22;13.96;49.84
75489;HTU21D;64069;46.396;48.102;2022-10-23T10:24:26;13.93;49.80
75489;HTU21D;64069;46.396;48.102;2022-10-23T10:27:14;13.81;49.87
75489;HTU21D;64069;46.396;48.102;2022-10-23T10:32:35;13.21;50.41
75489;HTU21D;64069;46.396;48.102;2022-10-23T10:38:44;13.17;50.79
75489;HTU21D;64069;46.396;48.102;2022-10-23T10:44:37;13.16;50.76
75489;HTU21D;64069;46.396;48.102;2022-10-23T10:47:30;13.16;50.78
75489;HTU21D;64069;46.396;48.102;2022-10-23T10:50:07;13.12;51.00
75489;HTU21D;64069;46.396;48.102;2022-10-23T10:53:05;13.11;50.85
75489;HTU21D;64069;46.396;48.102;2022-10-23T10:55:39;13.04;50.64
75489;HTU21D;64069;46.396;48.102;2022-10-23T11:00:41;13.00;51.03
75489;HTU21D;64069;46.396;48.102;2022-10-23T11:03:38;13.00;51.05
75489;HTU21D;64069;46.396;48.102;2022-10-23T11:06:13;12.94;51.01
75489;HTU21D;64069;46.396;48.102;2022-10-23T11:08:41;12.88;51.24
75489;HTU21D;64069;46.396;48.102;2022-10-23T11:11:13;12.82;51.24
75489;HTU21D;64069;46.396;48.102;2022-10-23T11:13:43;12.80;51.50
75489;HTU21D;64069;46.396;48.102;2022-10-23T11:16:35;12.81;51.40
75489;HTU21D;64069;46.396;48.102;2022-10-23T11:19:26;12.79;51.49
75489;HTU21D;64069;46.396;48.102;2022-10-23T11:22:18;12.76;51.40
75489;HTU21D;64069;46.396;48.102;2022-10-23T11:27:56;12.67;51.80
75489;HTU21D;64069;46.396;48.102;2022-10-23T11:39:26;12.47;52.33
75489;HTU21D;64069;46.396;48.102;2022-10-23T11:42:10;12.53;52.14
75489;HTU21D;64069;46.396;48.102;2022-10-23T11:44:45;12.59;52.09
75489;HTU21D;64069;46.396;48.102;2022-10-23T11:53:03;12.65;51.88
75489;HTU21D;64069;46.396;48.102;2022-10-23T11:55:35;12.61;51.95
75489;HTU21D;64069;46.396;48.102;2022-10-23T11:58:15;12.57;52.03
75489;HTU21D;64069;46.396;48.102;2022-10-23T12:03:58;12.40;52.51
75489;HTU21D;64069;46.396;48.102;2022-10-23T12:06:30;12.36;52.76
75489;HTU21D;64069;46.396;48.102;2022-10-23T12:09:07;12.31;52.93
75489;HTU21D;64069;46.396;48.102;2022-10-23T12:11:46;12.23;53.13
75489;HTU21D;64069;46.396;48.102;2022-10-23T12:19:55;12.10;53.76
75489;HTU21D;64069;46.396;48.102;2022-10-23T12:22:33;12.01;53.95
75489;HTU21D;64069;46.396;48.102;2022-10-23T12:25:15;11.98;54.13
75489;HTU21D;64069;46.396;48.102;2022-10-23T12:30:52;11.89;54.36
75489;HTU21D;64069;46.396;48.102;2022-10-23T12:33:36;11.81;54.52
75489;HTU21D;64069;46.396;48.102;2022-10-23T12:38:53;11.67;54.81
75489;HTU21D;64069;46.396;48.102;2022-10-23T12:41:30;11.59;55.07
75489;HTU21D;64069;46.396;48.102;2022-10-23T12:44:03;11.54;55.27
75489;HTU21D;64069;46.396;48.102;2022-10-23T12:46:38;11.49;55.45
75489;HTU21D;64069;46.396;48.102;2022-10-23T12:49:20;11.45;55.77
75489;HTU21D;64069;46.396;48.102;2022-10-23T12:51:58;11.39;56.10
75489;HTU21D;64069;46.396;48.102;2022-10-23T12:54:25;11.33;56.32
75489;HTU21D;64069;46.396;48.102;2022-10-23T12:56:52;11.25;56.58
75489;HTU21D;64069;46.396;48.102;2022-10-23T12:59:34;11.20;56.90
75489;HTU21D;64069;46.396;48.102;2022-10-23T13:02:22;11.14;57.23
75489;HTU21D;64069;46.396;48.102;2022-10-23T13:04:50;11.05;57.47
75489;HTU21D;64069;46.396;48.102;2022-10-23T13:07:26;10.99;57.78
75489;HTU21D;64069;46.396;48.102;2022-10-23T13:09:58;10.93;58.03
75489;HTU21D;64069;46.396;48.102;2022-10-23T13:12:30;10.82;58.35
75489;HTU21D;64069;46.396;48.102;2022-10-23T13:17:40;10.65;58.96
75489;HTU21D;64069;46.396;48.102;2022-10-23T13:20:23;10.55;59.32
75489;HTU21D;64069;46.396;48.102;2022-10-23T13:26:18;10.28;60.00
75489;HTU21D;64069;46.396;48.102;2022-10-23T13:28:46;10.15;60.29
75489;HTU21D;64069;46.396;48.102;2022-10-23T13:33:43;9.98;61.02
75489;HTU21D;64069;46.396;48.102;2022-10-23T13:41:25;9.60;61.99
75489;HTU21D;64069;46.396;48.102;2022-10-23T13:43:52;9.44;62.55
75489;HTU21D;64069;46.396;48.102;2022-10-23T13:46:22;9.30;63.11
75489;HTU21D;64069;46.396;48.102;2022-10-23T13:48:48;9.15;63.57
75489;HTU21D;64069;46.396;48.102;2022-10-23T13:51:24;9.01;64.07
75489;HTU21D;64069;46.396;48.102;2022-10-23T13:53:52;8.87;64.39
75489;HTU21D;64069;46.396;48.102;2022-10-23T13:56:20;8.74;64.83
75489;HTU21D;64069;46.396;48.102;2022-10-23T13:58:49;8.62;65.30
75489;HTU21D;64069;46.396;48.102;2022-10-23T14:01:26;8.50;65.85
75489;HTU21D;64069;46.396;48.102;2022-10-23T14:03:54;8.38;65.95
75489;HTU21D;64069;46.396;48.102;2022-10-23T14:06:23;8.30;66.30
75489;HTU21D;64069;46.396;48.102;2022-10-23T14:08:52;8.24;66.52
75489;HTU21D;64069;46.396;48.102;2022-10-23T14:11:21;8.16;66.84
75489;HTU21D;64069;46.396;48.102;2022-10-23T14:13:48;8.13;67.25
75489;HTU21D;64069;46.396;48.102;2022-10-23T14:16:16;8.20;67.88
75489;HTU21D;64069;46.396;48.102;2022-10-23T14:18:42;8.39;68.46
75489;HTU21D;64069;46.396;48.102;2022-10-23T14:21:13;8.48;68.21
75489;HTU21D;64069;46.396;48.102;2022-10-23T14:23:39;8.48;68.45
75489;HTU21D;64069;46.396;48.102;2022-10-23T14:26:08;8.42;68.65
75489;HTU21D;64069;46.396;48.102;2022-10-23T14:28:34;8.34;69.22
75489;HTU21D;64069;46.396;48.102;2022-10-23T14:31:12;8.26;69.79
75489;HTU21D;64069;46.396;48.102;2022-10-23T14:33:42;8.16;69.81
75489;HTU21D;64069;46.396;48.102;2022-10-23T14:36:09;8.07;69.98
75489;HTU21D;64069;46.396;48.102;2022-10-23T14:38:35;8.02;70.43
75489;HTU21D;64069;46.396;48.102;2022-10-23T14:41:15;7.96;71.15
75489;HTU21D;64069;46.396;48.102;2022-10-23T14:43:41;7.90;71.43
75489;HTU21D;64069;46.396;48.102;2022-10-23T14:46:12;7.84;71.93
75489;HTU21D;64069;46.396;48.102;2022-10-23T14:48:39;7.79;72.36
75489;HTU21D;64069;46.396;48.102;2022-10-23T14:51:14;7.76;72.86
75489;HTU21D;64069;46.396;48.102;2022-10-23T14:53:40;7.70;73.06
75489;HTU21D;64069;46.396;48.102;2022-10-23T14:56:06;7.62;73.35
75489;HTU21D;64069;46.396;48.102;2022-10-23T14:58:36;7.56;74.22
75489;HTU21D;64069;46.396;48.102;2022-10-23T15:01:02;7.53;74.81
75489;HTU21D;64069;46.396;48.102;2022-10-23T15:03:28;7.49;75.32
75489;HTU21D;64069;46.396;48.102;2022-10-23T15:05:54;7.44;75.44
75489;HTU21D;64069;46.396;48.102;2022-10-23T15:08:21;7.38;75.60
75489;HTU21D;64069;46.396;48.102;2022-10-23T15:10:51;7.33;76.50
75489;HTU21D;64069;46.396;48.102;2022-10-23T15:13:20;7.27;76.53
75489;HTU21D;64069;46.396;48.102;2022-10-23T15:15:46;7.26;76.86
75489;HTU21D;64069;46.396;48.102;2022-10-23T15:18:16;7.22;77.36
75489;HTU21D;64069;46.396;48.102;2022-10-23T15:20:51;7.18;77.85
75489;HTU21D;64069;46.396;48.102;2022-10-23T15:23:17;7.15;77.98
75489;HTU21D;64069;46.396;48.102;2022-10-23T15:25:43;7.11;78.31
75489;HTU21D;64069;46.396;48.102;2022-10-23T15:28:09;7.07;78.57
75489;HTU21D;64069;46.396;48.102;2022-10-23T15:30:35;7.01;78.71
75489;HTU21D;64069;46.396;48.102;2022-10-23T15:33:01;6.97;79.04
75489;HTU21D;64069;46.396;48.102;2022-10-23T15:35:27;6.90;79.21
75489;HTU21D;64069;46.396;48.102;2022-10-23T15:37:56;6.86;79.39
75489;HTU21D;64069;46.396;48.102;2022-10-23T15:40:22;6.81;79.60
75489;HTU21D;64069;46.396;48.102;2022-10-23T15:42:51;6.79;79.80
75489;HTU21D;64069;46.396;48.102;2022-10-23T15:45:20;6.75;80.07
75489;HTU21D;64069;46.396;48.102;2022-10-23T15:47:46;6.74;80.59
75489;HTU21D;64069;46.396;48.102;2022-10-23T15:50:12;6.71;80.65
75489;HTU21D;64069;46.396;48.102;2022-10-23T15:52:42;6.68;80.87
75489;HTU21D;64069;46.396;48.102;2022-10-23T15:55:08;6.67;80.96
75489;HTU21D;64069;46.396;48.102;2022-10-23T15:57:38;6.66;81.25
75489;HTU21D;64069;46.396;48.102;2022-10-23T16:00:05;6.60;81.22
75489;HTU21D;64069;46.396;48.102;2022-10-23T16:02:34;6.57;81.39
75489;HTU21D;64069;46.396;48.102;2022-10-23T16:05:00;6.55;81.52
75489;HTU21D;64069;46.396;48.102;2022-10-23T16:07:26;6.52;81.54
75489;HTU21D;64069;46.396;48.102;2022-10-23T16:09:52;6.46;81.59
75489;HTU21D;64069;46.396;48.102;2022-10-23T16:12:18;6.43;81.90
75489;HTU21D;64069;46.396;48.102;2022-10-23T16:14:47;6.40;81.92
75489;HTU21D;64069;46.396;48.102;2022-10-23T16:17:13;6.40;82.20
75489;HTU21D;64069;46.396;48.102;2022-10-23T16:19:44;6.38;82.26
75489;HTU21D;64069;46.396;48.102;2022-10-23T16:22:11;6.34;82.27
75489;HTU21D;64069;46.396;48.102;2022-10-23T16:24:37;6.31;82.58
75489;HTU21D;64069;46.396;48.102;2022-10-23T16:27:03;6.28;82.66
75489;HTU21D;64069;46.396;48.102;2022-10-23T16:29:30;6.26;82.94
75489;HTU21D;64069;46.396;48.102;2022-10-23T16:31:59;6.24;83.04
75489;HTU21D;64069;46.396;48.102;2022-10-23T16:34:25;6.21;83.27
75489;HTU21D;64069;46.396;48.102;2022-10-23T16:36:54;6.19;83.35
75489;HTU21D;64069;46.396;48.102;2022-10-23T16:39:43;6.15;83.36
75489;HTU21D;64069;46.396;48.102;2022-10-23T16:42:27;6.14;83.92
75489;HTU21D;64069;46.396;48.102;2022-10-23T16:45:04;6.16;84.13
75489;HTU21D;64069;46.396;48.102;2022-10-23T16:47:30;6.15;84.16
75489;HTU21D;64069;46.396;48.102;2022-10-23T16:49:56;6.13;84.29
75489;HTU21D;64069;46.396;48.102;2022-10-23T16:52:27;6.12;84.36
75489;HTU21D;64069;46.396;48.102;2022-10-23T16:54:53;6.09;84.55
75489;HTU21D;64069;46.396;48.102;2022-10-23T16:57:20;6.08;84.74
75489;HTU21D;64069;46.396;48.102;2022-10-23T16:59:45;6.07;84.88
75489;HTU21D;64069;46.396;48.102;2022-10-23T17:02:12;6.02;85.00
75489;HTU21D;64069;46.396;48.102;2022-10-23T17:04:39;5.99;85.01
75489;HTU21D;64069;46.396;48.102;2022-10-23T17:07:05;5.97;85.24
75489;HTU21D;64069;46.396;48.102;2022-10-23T17:09:31;5.95;85.16
75489;HTU21D;64069;46.396;48.102;2022-10-23T17:12:01;5.92;85.35
75489;HTU21D;64069;46.396;48.102;2022-10-23T17:14:27;5.92;85.59
75489;HTU21D;64069;46.396;48.102;2022-10-23T17:16:58;5.92;85.58
75489;HTU21D;64069;46.396;48.102;2022-10-23T17:19:26;5.91;85.75
75489;HTU21D;64069;46.396;48.102;2022-10-23T17:21:53;5.90;85.81
75489;HTU21D;64069;46.396;48.102;2022-10-23T17:24:20;5.90;85.96
75489;HTU21D;64069;46.396;48.102;2022-10-23T17:26:46;5.93;85.95
75489;HTU21D;64069;46.396;48.102;2022-10-23T17:29:13;5.98;85.98
75489;HTU21D;64069;46.396;48.102;2022-10-23T17:31:44;6.08;85.95
75489;HTU21D;64069;46.396;48.102;2022-10-23T17:34:18;6.14;85.95